Time,TemperatureF,DewpointF,PressureIn,WindDirection,WindDirectionDegrees,WindSpeedMPH,WindSpeedGustMPH,Humidity,HourlyPrecipIn,Conditions,Clouds,dailyrainin,SoftwareType,DateUTC
2013-04-21 00:03:00,78.0,-99.9,30.03,ESE,114,9.0,14.0,-999,-99.99,,,-99.99,,2013-04-21 04:03:00,
2013-04-21 00:13:00,78.0,-99.9,30.03,ESE,120,9.0,13.0,-999,-99.99,,,-99.99,,2013-04-21 04:13:00,
2013-04-21 00:23:00,78.0,-99.9,30.04,ESE,123,8.0,11.0,-999,-99.99,,,-99.99,,2013-04-21 04:23:00,
2013-04-21 00:33:00,78.0,-99.9,30.04,ESE,112,9.0,13.0,-999,-99.99,,,-99.99,,2013-04-21 04:33:00,
2013-04-21 00:43:00,77.0,-99.9,30.04,SE,130,9.0,13.0,-999,-99.99,,,-99.99,,2013-04-21 04:43:00,
2013-04-21 00:53:00,77.0,-99.9,30.04,SE,128,8.0,13.0,-999,-99.99,,,-99.99,,2013-04-21 04:53:00,
2013-04-21 01:02:00,-999.0,-99.9,30.04,SSE,148,7.0,10.0,-999,-99.99,,,-99.99,,2013-04-21 05:02:00,
2013-04-21 01:12:00,76.0,-99.9,30.04,SSE,148,7.0,10.0,-999,-99.99,,,-99.99,,2013-04-21 05:12:00,
2013-04-21 01:22:00,76.0,-99.9,30.05,SE,142,7.0,10.0,-999,-99.99,,,-99.99,,2013-04-21 05:22:00,
2013-04-21 01:32:00,-999.0,-99.9,30.06,SE,146,6.0,10.0,-999,-99.99,,,-99.99,,2013-04-21 05:32:00,
2013-04-21 01:43:00,76.0,-99.9,30.06,SE,146,6.0,10.0,-999,-99.99,,,-99.99,,2013-04-21 05:43:00,
2013-04-21 01:52:00,-999.0,-99.9,30.06,SSE,164,6.0,9.0,-999,-99.99,,,-99.99,,2013-04-21 05:52:00,
2013-04-21 02:01:00,75.0,-99.9,30.06,South,171,6.0,10.0,-999,-99.99,,,-99.99,,2013-04-21 06:01:00,
2013-04-21 02:12:00,-999.0,-99.9,30.07,South,189,8.0,11.0,-999,-99.99,,,-99.99,,2013-04-21 06:12:00,
2013-04-21 02:22:00,-999.0,-99.9,30.06,South,178,7.0,11.0,-999,-99.99,,,-99.99,,2013-04-21 06:22:00,
2013-04-21 02:32:00,-999.0,-99.9,30.07,South,181,4.0,8.0,-999,-99.99,,,-99.99,,2013-04-21 06:32:00,
2013-04-21 02:42:00,-999.0,-99.9,30.07,South,173,6.0,10.0,-999,-99.99,,,-99.99,,2013-04-21 06:42:00,
2013-04-21 02:52:00,-999.0,-99.9,30.07,SSE,167,7.0,9.0,-999,-99.99,,,-99.99,,2013-04-21 06:52:00,
2013-04-21 03:02:00,-999.0,-99.9,30.08,South,170,8.0,10.0,-999,-99.99,,,-99.99,,2013-04-21 07:02:00,
2013-04-21 03:12:00,-999.0,-99.9,30.08,SSE,166,6.0,8.0,-999,-99.99,,,-99.99,,2013-04-21 07:12:00,
2013-04-21 03:22:00,-999.0,-99.9,30.08,SE,145,3.0,6.0,-999,-99.99,,,-99.99,,2013-04-21 07:22:00,
2013-04-21 03:32:00,-999.0,-99.9,30.09,SSE,151,4.0,6.0,-999,-99.99,,,-99.99,,2013-04-21 07:32:00,
2013-04-21 03:42:00,-999.0,-99.9,30.09,SSE,166,5.0,7.0,-999,-99.99,,,-99.99,,2013-04-21 07:42:00,
2013-04-21 03:52:00,-999.0,-99.9,30.09,South,171,5.0,7.0,-999,-99.99,,,-99.99,,2013-04-21 07:52:00,
2013-04-21 04:02:00,-999.0,-99.9,30.09,South,171,4.0,6.0,-999,-99.99,,,-99.99,,2013-04-21 08:02:00,
2013-04-21 04:12:00,73.0,-99.9,30.09,South,172,4.0,7.0,-999,-99.99,,,-99.99,,2013-04-21 08:12:00,
2013-04-21 04:22:00,-999.0,-99.9,30.09,South,173,4.0,7.0,-999,-99.99,,,-99.99,,2013-04-21 08:22:00,
2013-04-21 04:32:00,-999.0,-99.9,30.09,SSE,159,4.0,6.0,-999,-99.99,,,-99.99,,2013-04-21 08:32:00,
2013-04-21 04:42:00,-999.0,-99.9,30.09,ESE,114,5.0,6.0,-999,-99.99,,,-99.99,,2013-04-21 08:42:00,
2013-04-21 04:52:00,-999.0,-99.9,30.09,SE,146,4.0,7.0,-999,-99.99,,,-99.99,,2013-04-21 08:52:00,
2013-04-21 05:02:00,-999.0,-99.9,30.09,SSE,148,4.0,5.0,-999,-99.99,,,-99.99,,2013-04-21 09:02:00,
2013-04-21 05:12:00,72.0,-99.9,30.09,SSE,154,6.0,7.0,-999,-99.99,,,-99.99,,2013-04-21 09:12:00,
2013-04-21 05:22:00,-999.0,-99.9,30.09,SE,131,2.0,4.0,-999,-99.99,,,-99.99,,2013-04-21 09:22:00,
2013-04-21 05:33:00,-999.0,-99.9,30.09,SSE,148,3.0,4.0,-999,-99.99,,,-99.99,,2013-04-21 09:33:00,
2013-04-21 05:43:00,72.0,-99.9,30.09,South,173,2.0,5.0,-999,-99.99,,,-99.99,,2013-04-21 09:43:00,
2013-04-21 05:53:00,72.0,-99.9,30.08,SSE,166,4.0,5.0,-999,-99.99,,,-99.99,,2013-04-21 09:53:00,
2013-04-21 06:03:00,-999.0,-99.9,30.08,SE,135,5.0,6.0,-999,-99.99,,,-99.99,,2013-04-21 10:03:00,
2013-04-21 06:12:00,72.0,-99.9,30.07,South,187,6.0,8.0,-999,-99.99,,,-99.99,,2013-04-21 10:12:00,
2013-04-21 06:22:00,72.0,-99.9,30.07,South,177,3.0,4.0,-999,-99.99,,,-99.99,,2013-04-21 10:22:00,
2013-04-21 06:33:00,72.0,-99.9,30.07,SSE,154,7.0,9.0,-999,-99.99,,,-99.99,,2013-04-21 10:33:00,
2013-04-21 06:42:00,72.0,-99.9,30.06,SSE,152,4.0,7.0,-999,-99.99,,,-99.99,,2013-04-21 10:42:00,
2013-04-21 06:52:00,72.0,-99.9,30.06,SSE,154,6.0,8.0,-999,-99.99,,,-99.99,,2013-04-21 10:52:00,
2013-04-21 07:03:00,72.0,-99.9,30.06,SSE,157,4.0,8.0,-999,-99.99,,,-99.99,,2013-04-21 11:03:00,
2013-04-21 07:12:00,72.0,-99.9,30.05,SSE,162,4.0,6.0,-999,-99.99,,,-99.99,,2013-04-21 11:12:00,
2013-04-21 07:22:00,71.0,-99.9,30.05,SSW,193,2.0,4.0,-999,-99.99,,,-99.99,,2013-04-21 11:22:00,
2013-04-21 07:34:00,70.0,-99.9,30.04,WSW,237,4.0,5.0,-999,-99.99,,,-99.99,,2013-04-21 11:34:00,
2013-04-21 07:42:00,70.0,-99.9,30.04,SW,228,4.0,5.0,-999,-99.99,,,-99.99,,2013-04-21 11:42:00,
2013-04-21 07:52:00,70.0,-99.9,30.04,SW,219,6.0,8.0,-999,-99.99,,,-99.99,,2013-04-21 11:52:00,
2013-04-21 08:03:00,69.0,-99.9,30.04,SW,224,7.0,10.0,-999,-99.99,,,-99.99,,2013-04-21 12:03:00,
2013-04-21 08:12:00,68.0,-99.9,30.04,SW,228,10.0,13.0,-999,-99.99,,,-99.99,,2013-04-21 12:12:00,
2013-04-21 08:22:00,68.0,-99.9,30.03,SW,222,6.0,10.0,-999,-99.99,,,-99.99,,2013-04-21 12:22:00,
2013-04-21 08:32:00,68.0,-99.9,30.03,SW,231,6.0,9.0,-999,-99.99,,,-99.99,,2013-04-21 12:32:00,
2013-04-21 08:42:00,69.0,-99.9,30.02,WSW,240,5.0,7.0,-999,-99.99,,,-99.99,,2013-04-21 12:42:00,
2013-04-21 08:52:00,69.0,-99.9,30.02,SW,220,4.0,7.0,-999,-99.99,,,-99.99,,2013-04-21 12:52:00,
2013-04-21 09:02:00,68.0,-99.9,30.01,SW,221,7.0,9.0,-999,-99.99,,,-99.99,,2013-04-21 13:02:00,
2013-04-21 09:12:00,68.0,-99.9,30.01,SW,225,7.0,9.0,-999,-99.99,,,-99.99,,2013-04-21 13:12:00,
2013-04-21 09:22:00,68.0,-99.9,30.01,SW,230,8.0,9.0,-999,-99.99,,,-99.99,,2013-04-21 13:22:00,
2013-04-21 09:32:00,68.0,-99.9,30.01,SW,228,7.0,9.0,-999,-99.99,,,-99.99,,2013-04-21 13:32:00,
2013-04-21 09:42:00,68.0,-99.9,30.01,WSW,238,9.0,11.0,-999,-99.99,,,-99.99,,2013-04-21 13:42:00,
2013-04-21 09:52:00,67.0,-99.9,30.01,WSW,237,7.0,10.0,-999,-99.99,,,-99.99,,2013-04-21 13:52:00,
2013-04-21 10:02:00,68.0,-99.9,30.01,SW,232,7.0,9.0,-999,-99.99,,,-99.99,,2013-04-21 14:02:00,
2013-04-21 10:11:00,68.0,-99.9,30.01,SW,227,8.0,9.0,-999,-99.99,,,-99.99,,2013-04-21 14:11:00,
2013-04-21 10:22:00,68.0,-99.9,30.01,SW,224,7.0,11.0,-999,-99.99,,,-99.99,,2013-04-21 14:22:00,
2013-04-21 10:32:00,68.0,-99.9,30.01,SSW,211,6.0,9.0,-999,-99.99,,,-99.99,,2013-04-21 14:32:00,
2013-04-21 10:42:00,-999.0,-99.9,30.01,SW,231,8.0,10.0,-999,-99.99,,,-99.99,,2013-04-21 14:42:00,
2013-04-21 10:52:00,-999.0,-99.9,30.01,SW,217,7.0,10.0,-999,-99.99,,,-99.99,,2013-04-21 14:52:00,
2013-04-21 11:02:00,-999.0,-99.9,30.02,SW,227,6.0,10.0,-999,-99.99,,,-99.99,,2013-04-21 15:02:00,
2013-04-21 11:12:00,-999.0,-99.9,30.02,SSW,201,5.0,7.0,-999,-99.99,,,-99.99,,2013-04-21 15:12:00,
2013-04-21 11:22:00,-999.0,-99.9,30.02,SW,218,6.0,9.0,-999,-99.99,,,-99.99,,2013-04-21 15:22:00,
2013-04-21 11:33:00,-999.0,-99.9,30.02,SSW,208,5.0,9.0,-999,-99.99,,,-99.99,,2013-04-21 15:33:00,
2013-04-21 11:43:00,-999.0,-99.9,30.02,South,183,4.0,7.0,-999,-99.99,,,-99.99,,2013-04-21 15:43:00,
2013-04-21 11:53:00,-999.0,-99.9,30.02,SW,219,5.0,6.0,-999,-99.99,,,-99.99,,2013-04-21 15:53:00,
2013-04-21 12:03:00,-999.0,-99.9,30.03,SW,232,8.0,9.0,-999,-99.99,,,-99.99,,2013-04-21 16:03:00,
2013-04-21 12:13:00,-999.0,-99.9,30.03,SW,223,8.0,10.0,-999,-99.99,,,-99.99,,2013-04-21 16:13:00,
2013-04-21 12:23:00,-999.0,-99.9,30.03,SW,214,9.0,12.0,-999,-99.99,,,-99.99,,2013-04-21 16:23:00,
2013-04-21 12:33:00,-999.0,-99.9,30.03,SW,227,9.0,12.0,-999,-99.99,,,-99.99,,2013-04-21 16:33:00,
2013-04-21 12:42:00,-999.0,-99.9,30.03,SW,231,8.0,11.0,-999,-99.99,,,-99.99,,2013-04-21 16:42:00,
2013-04-21 12:53:00,-999.0,-99.9,30.03,SW,235,8.0,11.0,-999,-99.99,,,-99.99,,2013-04-21 16:53:00,
2013-04-21 13:02:00,-999.0,-99.9,30.04,SW,216,8.0,11.0,-999,-99.99,,,-99.99,,2013-04-21 17:02:00,
2013-04-21 13:12:00,-999.0,-99.9,30.04,SW,224,8.0,10.0,-999,-99.99,,,-99.99,,2013-04-21 17:12:00,
2013-04-21 13:23:00,-999.0,-99.9,30.04,SW,224,9.0,11.0,-999,-99.99,,,-99.99,,2013-04-21 17:23:00,
2013-04-21 13:32:00,-999.0,-99.9,30.05,SW,233,7.0,12.0,-999,-99.99,,,-99.99,,2013-04-21 17:32:00,
2013-04-21 13:42:00,-999.0,-99.9,30.05,SSW,201,6.0,8.0,-999,-99.99,,,-99.99,,2013-04-21 17:42:00,
2013-04-21 13:52:00,-999.0,-99.9,30.06,SSW,210,5.0,9.0,-999,-99.99,,,-99.99,,2013-04-21 17:52:00,
2013-04-21 14:02:00,70.0,-99.9,30.05,SSW,207,6.0,10.0,-999,-99.99,,,-99.99,,2013-04-21 18:02:00,
2013-04-21 14:11:00,70.0,-99.9,30.06,SSW,202,6.0,9.0,-999,-99.99,,,-99.99,,2013-04-21 18:11:00,
2013-04-21 14:22:00,70.0,-99.9,30.06,SSW,206,6.0,9.0,-999,-99.99,,,-99.99,,2013-04-21 18:22:00,
2013-04-21 14:33:00,-999.0,-99.9,30.06,SSW,200,7.0,12.0,-999,-99.99,,,-99.99,,2013-04-21 18:33:00,
2013-04-21 14:42:00,71.0,-99.9,30.06,South,189,7.0,10.0,-999,-99.99,,,-99.99,,2013-04-21 18:42:00,
2013-04-21 14:52:00,71.0,-99.9,30.06,SW,220,7.0,10.0,-999,-99.99,,,-99.99,,2013-04-21 18:52:00,
2013-04-21 15:02:00,71.0,-99.9,30.06,SW,220,6.0,10.0,-999,-99.99,,,-99.99,,2013-04-21 19:02:00,
2013-04-21 15:12:00,71.0,-99.9,30.06,SW,235,6.0,7.0,-999,-99.99,,,-99.99,,2013-04-21 19:12:00,
2013-04-21 15:22:00,72.0,-99.9,30.06,SW,234,6.0,8.0,-999,-99.99,,,-99.99,,2013-04-21 19:22:00,
2013-04-21 15:32:00,72.0,-99.9,30.07,WSW,243,5.0,8.0,-999,-99.99,,,-99.99,,2013-04-21 19:32:00,
2013-04-21 15:43:00,73.0,-99.9,30.07,SSW,206,4.0,8.0,-999,-99.99,,,-99.99,,2013-04-21 19:43:00,
2013-04-21 15:52:00,73.0,-99.9,30.07,WSW,238,5.0,6.0,-999,-99.99,,,-99.99,,2013-04-21 19:52:00,
2013-04-21 16:02:00,73.0,-99.9,30.06,SW,229,5.0,6.0,-999,-99.99,,,-99.99,,2013-04-21 20:02:00,
2013-04-21 16:11:00,73.0,-99.9,30.06,WSW,248,4.0,6.0,-999,-99.99,,,-99.99,,2013-04-21 20:11:00,
2013-04-21 16:22:00,73.0,-99.9,30.06,SW,225,2.0,4.0,-999,-99.99,,,-99.99,,2013-04-21 20:22:00,
2013-04-21 16:32:00,74.0,-99.9,30.06,WNW,282,1.0,2.0,-999,-99.99,,,-99.99,,2013-04-21 20:32:00,
2013-04-21 16:42:00,73.0,-99.9,30.06,NNW,338,3.0,3.0,-999,-99.99,,,-99.99,,2013-04-21 20:42:00,
2013-04-21 16:52:00,74.0,-99.9,30.06,WNW,285,3.0,4.0,-999,-99.99,,,-99.99,,2013-04-21 20:52:00,
2013-04-21 17:02:00,73.0,-99.9,30.06,NW,322,3.0,4.0,-999,-99.99,,,-99.99,,2013-04-21 21:02:00,
2013-04-21 17:12:00,73.0,-99.9,30.06,NW,308,4.0,5.0,-999,-99.99,,,-99.99,,2013-04-21 21:12:00,
2013-04-21 17:22:00,74.0,-99.9,30.06,WNW,288,6.0,7.0,-999,-99.99,,,-99.99,,2013-04-21 21:22:00,
2013-04-21 17:33:00,73.0,-99.9,30.06,WSW,238,5.0,8.0,-999,-99.99,,,-99.99,,2013-04-21 21:33:00,
2013-04-21 17:43:00,73.0,-99.9,30.06,WSW,249,2.0,6.0,-999,-99.99,,,-99.99,,2013-04-21 21:43:00,
2013-04-21 17:53:00,75.0,-99.9,30.05,ESE,123,0.0,2.0,-999,-99.99,,,-99.99,,2013-04-21 21:53:00,
2013-04-21 18:03:00,76.0,-99.9,30.05,NE,39,1.0,3.0,-999,-99.99,,,-99.99,,2013-04-21 22:03:00,
2013-04-21 18:12:00,75.0,-99.9,30.04,North,352,4.0,6.0,-999,-99.99,,,-99.99,,2013-04-21 22:12:00,
2013-04-21 18:22:00,75.0,-99.9,30.04,North,359,4.0,6.0,-999,-99.99,,,-99.99,,2013-04-21 22:22:00,
2013-04-21 18:33:00,75.0,-99.9,30.04,NW,316,5.0,6.0,-999,-99.99,,,-99.99,,2013-04-21 22:33:00,
2013-04-21 18:43:00,76.0,-99.9,30.03,ESE,109,2.0,6.0,-999,-99.99,,,-99.99,,2013-04-21 22:43:00,
2013-04-21 18:53:00,-999.0,-99.9,30.03,SSW,201,5.0,8.0,-999,-99.99,,,-99.99,,2013-04-21 22:53:00,
2013-04-21 19:02:00,-999.0,-99.9,30.02,WSW,250,4.0,7.0,-999,-99.99,,,-99.99,,2013-04-21 23:02:00,
2013-04-21 19:12:00,75.0,-99.9,30.02,WNW,294,4.0,5.0,-999,-99.99,,,-99.99,,2013-04-21 23:12:00,
2013-04-21 19:22:00,-999.0,-99.9,30.01,East,87,2.0,6.0,-999,-99.99,,,-99.99,,2013-04-21 23:22:00,
2013-04-21 19:32:00,-999.0,-99.9,30.00,SE,133,5.0,10.0,-999,-99.99,,,-99.99,,2013-04-21 23:32:00,
2013-04-21 19:43:00,-999.0,-99.9,30.00,SSE,150,6.0,10.0,-999,-99.99,,,-99.99,,2013-04-21 23:43:00,
2013-04-21 19:52:00,-999.0,-99.9,30.00,SSE,154,6.0,11.0,-999,-99.99,,,-99.99,,2013-04-21 23:52:00,
2013-04-21 20:02:00,-999.0,-99.9,29.99,SSE,163,9.0,11.0,-999,-99.99,,,-99.99,,2013-04-22 00:02:00,
2013-04-21 20:12:00,-999.0,-99.9,29.98,SSE,162,4.0,9.0,-999,-99.99,,,-99.99,,2013-04-22 00:12:00,
2013-04-21 20:22:00,-999.0,-99.9,29.98,SSE,165,6.0,8.0,-999,-99.99,,,-99.99,,2013-04-22 00:22:00,
2013-04-21 20:32:00,-999.0,-99.9,29.98,SSE,155,6.0,11.0,-999,-99.99,,,-99.99,,2013-04-22 00:32:00,
2013-04-21 20:42:00,-999.0,-99.9,29.98,SE,144,3.0,8.0,-999,-99.99,,,-99.99,,2013-04-22 00:42:00,
2013-04-21 20:52:00,-999.0,-99.9,29.98,NNE,20,2.0,5.0,-999,-99.99,,,-99.99,,2013-04-22 00:52:00,
2013-04-21 21:01:00,-999.0,-99.9,29.97,East,100,8.0,12.0,-999,-99.99,,,-99.99,,2013-04-22 01:01:00,
2013-04-21 21:12:00,-999.0,-99.9,29.97,ESE,114,10.0,14.0,-999,-99.99,,,-99.99,,2013-04-22 01:12:00,
2013-04-21 21:22:00,-999.0,-99.9,29.97,East,100,10.0,14.0,-999,-99.99,,,-99.99,,2013-04-22 01:22:00,
2013-04-21 21:32:00,-999.0,-99.9,29.97,East,94,9.0,14.0,-999,-99.99,,,-99.99,,2013-04-22 01:32:00,
2013-04-21 21:42:00,-999.0,-99.9,29.97,East,91,7.0,11.0,-999,-99.99,,,-99.99,,2013-04-22 01:42:00,
2013-04-21 21:52:00,-999.0,-99.9,29.97,ESE,107,9.0,13.0,-999,-99.99,,,-99.99,,2013-04-22 01:52:00,
2013-04-21 22:02:00,-999.0,-99.9,29.97,East,96,6.0,12.0,-999,-99.99,,,-99.99,,2013-04-22 02:02:00,
2013-04-21 22:12:00,-999.0,-99.9,29.97,ESE,108,8.0,13.0,-999,-99.99,,,-99.99,,2013-04-22 02:12:00,
2013-04-21 22:22:00,-999.0,-99.9,29.97,ESE,109,6.0,9.0,-999,-99.99,,,-99.99,,2013-04-22 02:22:00,
2013-04-21 22:32:00,78.0,-99.9,29.97,ESE,112,9.0,12.0,-999,-99.99,,,-99.99,,2013-04-22 02:32:00,
2013-04-21 22:42:00,-999.0,-99.9,29.97,East,98,7.0,12.0,-999,-99.99,,,-99.99,,2013-04-22 02:42:00,
2013-04-21 22:52:00,79.0,-99.9,29.97,ESE,118,8.0,13.0,-999,-99.99,,,-99.99,,2013-04-22 02:52:00,
2013-04-21 23:02:00,-999.0,-99.9,29.97,ESE,114,5.0,11.0,-999,-99.99,,,-99.99,,2013-04-22 03:02:00,
2013-04-21 23:11:00,-999.0,-99.9,29.98,ESE,108,5.0,10.0,-999,-99.99,,,-99.99,,2013-04-22 03:11:00,
2013-04-21 23:22:00,78.0,-99.9,29.98,East,96,6.0,9.0,-999,-99.99,,,-99.99,,2013-04-22 03:22:00,
2013-04-21 23:33:00,78.0,-99.9,29.98,ESE,114,6.0,9.0,-999,-99.99,,,-99.99,,2013-04-22 03:33:00,
2013-04-21 23:43:00,78.0,-99.9,29.98,ESE,113,6.0,9.0,-999,-99.99,,,-99.99,,2013-04-22 03:43:00,
2013-04-21 23:53:00,77.0,-99.9,29.98,ESE,109,5.0,12.0,-999,-99.99,,,-99.99,,2013-04-22 03:53:00,